Time;durP1;ratioP1;P1;durP2;ratioP2;P2;SDS_P1;SDS_P2;PMS_P1;PMS_P2;Temp;Humidity;BMP_temperature;BMP_pressure;BME280_temperature;BME280_humidity;BME280_pressure;Samples;Min_cycle;Max_cycle;Signal;HPM_P1;HPM_P2
2024/04/17 05:12:26;;;;;;;;;;;;;;;8.41;100.00;99062.69;5376022;21;19932;-86
2024/04/17 05:14:51;;;;;;;;;;;;;;;8.44;100.00;99066.97;5362884;26;19930;-88
2024/04/17 05:17:17;;;;;;;;;;;;;;;8.39;100.00;99064.50;5361861;26;19930;-90
2024/04/17 05:19:42;;;;;;;;;;;;;;;8.43;100.00;99074.06;5362504;26;19929;-89
2024/04/17 05:22:07;;;;;;;;;;;;;;;8.42;100.00;99069.66;5363425;26;19937;-90
2024/04/17 05:24:32;;;;;;;;;;;;;;;8.46;100.00;99073.91;5362626;26;20000;-88
2024/04/17 05:26:57;;;;;;;;;;;;;;;8.50;100.00;99070.22;5360790;26;19940;-90
2024/04/17 05:29:23;;;;;;;;;;;;;;;8.48;100.00;99074.69;5362448;26;19929;-88
2024/04/17 05:31:48;;;;;;;;;;;;;;;8.51;100.00;99079.84;5332252;26;20376;-88
2024/04/17 05:34:13;;;;;;;;;;;;;;;8.46;100.00;99079.19;5331789;26;19936;-88
2024/04/17 05:36:39;;;;;;;;;;;;;;;8.47;100.00;99083.56;5361973;26;20330;-88
2024/04/17 05:39:04;;;;;;;;;;;;;;;8.53;100.00;99082.41;5331851;26;19929;-87
2024/04/17 05:41:29;;;;;;;;;;;;;;;8.49;100.00;99086.13;5330707;26;20285;-88
2024/04/17 05:43:55;;;;;;;;;;;;;;;8.51;100.00;99085.13;5331775;26;19945;-87
2024/04/17 05:46:25;;;;;;;;;;;;;;;8.48;100.00;99095.81;5330998;26;19933;-87
2024/04/17 05:48:50;;;;;;;;;;;;;;;8.52;100.00;99092.13;5331367;26;19935;-89
2024/04/17 05:51:15;;;;;;;;;;;;;;;8.50;100.00;99091.34;5331454;26;20368;-85
2024/04/17 05:53:40;;;;;;;;;;;;;;;8.50;100.00;99096.63;5362878;26;19937;-89
2024/04/17 05:56:06;;;;;;;;;;;;;;;8.56;100.00;99105.19;5330025;26;19937;-89
2024/04/17 05:58:32;;;;;;;;;;;;;;;8.57;100.00;99104.25;5330780;26;20377;-88
2024/04/17 06:00:58;;;;;;;;;;;;;;;8.56;100.00;99102.56;5362032;26;19945;-88
2024/04/17 06:03:23;;;;;;;;;;;;;;;8.61;100.00;99105.84;5365683;26;20342;-87
2024/04/17 06:05:48;;;;;;;;;;;;;;;8.58;100.00;99105.97;5365246;26;19950;-88
2024/04/17 06:08:13;;;;;;;;;;;;;;;8.60;100.00;99114.66;5365175;26;20007;-88
2024/04/17 06:10:39;;;;;;;;;;;;;;;8.62;100.00;99110.19;5364236;26;19941;-88
2024/04/17 06:13:04;;;;;;;;;;;;;;;8.60;100.00;99107.63;5365877;26;19929;-91
2024/04/17 06:15:30;;;;;;;;;;;;;;;8.64;100.00;99116.25;5336776;26;20396;-87
2024/04/17 06:17:56;;;;;;;;;;;;;;;8.66;100.00;99119.69;5334270;26;19980;-88
2024/04/17 06:20:21;;;;;;;;;;;;;;;8.64;100.00;99116.25;5363305;26;19942;-91
2024/04/17 06:22:46;;;;;;;;;;;;;;;8.67;100.00;99116.13;5364906;26;19939;-89
2024/04/17 06:25:11;;;;;;;;;;;;;;;8.67;100.00;99121.41;5364336;26;19936;-90
2024/04/17 06:27:37;;;;;;;;;;;;;;;8.70;100.00;99122.09;5364977;26;19938;-89
2024/04/17 06:30:02;;;;;;;;;;;;;;;8.70;100.00;99123.91;5364824;26;19958;-89
2024/04/17 06:32:27;;;;;;;;;;;;;;;8.76;100.00;99130.66;5364478;26;19930;-89
2024/04/17 06:34:53;;;;;;;;;;;;;;;8.72;100.00;99135.25;5365816;26;19977;-89
2024/04/17 06:37:18;;;;;;;;;;;;;;;8.74;100.00;99128.09;5364874;26;20373;-89
2024/04/17 07:56:38;;;;;;;;;;;;;;;9.07;100.00;99133.59;6061466;21;20269;-84
2024/04/17 07:59:03;;;;;;;;;;;;;;;9.07;100.00;99138.03;5346413;26;19930;-89
2024/04/17 08:01:28;;;;;;;;;;;;;;;9.04;100.00;99146.97;5315983;26;20438;-89
2024/04/17 08:03:53;;;;;;;;;;;;;;;9.08;100.00;99137.13;5315797;26;19930;-90
2024/04/17 08:06:20;;;;;;;;;;;;;;;9.05;100.00;99139.91;5344845;26;19930;-89
2024/04/17 08:08:49;;;;;;;;;;;;;;;9.09;100.00;99146.75;5346326;26;19930;-89
2024/04/17 08:11:17;;;;;;;;;;;;;;;9.08;100.00;99137.97;5344638;26;19941;-91
2024/04/17 08:13:42;;;;;;;;;;;;;;;9.07;100.00;99144.19;5315628;26;20305;-91
2024/04/17 08:16:07;;;;;;;;;;;;;;;9.10;100.00;99151.13;5315481;26;19937;-89
2024/04/17 08:18:33;;;;;;;;;;;;;;;9.11;100.00;99150.19;5346262;26;19934;-90
2024/04/17 08:20:58;;;;;;;;;;;;;;;9.11;100.00;99152.84;5315711;26;20379;-88
2024/04/17 08:23:28;;;;;;;;;;;;;;;9.12;100.00;99149.25;5344770;26;21456;-88
2024/04/17 08:25:53;;;;;;;;;;;;;;;9.13;100.00;99152.78;5344490;26;19938;-90
2024/04/17 08:28:19;;;;;;;;;;;;;;;9.14;100.00;99152.66;5345791;26;19936;-88
2024/04/17 08:30:44;;;;;;;;;;;;;;;9.16;100.00;99147.31;5344665;26;20360;-88
2024/04/17 08:33:09;;;;;;;;;;;;;;;9.13;100.00;99156.25;5345203;26;19999;-89
2024/04/17 08:35:36;;;;;;;;;;;;;;;9.16;100.00;99156.13;5345981;26;19937;-87
2024/04/17 08:38:01;;;;;;;;;;;;;;;9.63;100.00;99154.75;5345829;26;20009;-85
2024/04/17 08:40:26;;;;;;;;;;;;;;;10.91;100.00;99140.25;5344121;26;19946;-81
2024/04/17 08:42:53;;;;;;;;;;;;;;;11.35;100.00;99150.22;5315455;26;19930;-83
2024/04/17 08:45:24;;;;;;;;;;;;;;;11.98;100.00;99148.41;5345541;26;20376;-84
2024/04/17 08:47:50;;;;;;;;;;;;;;;12.26;100.00;99142.31;5345961;26;20365;-88
2024/04/17 08:50:15;;;;;;;;;;;;;;;12.08;100.00;99144.28;5345819;26;19930;-79
2024/04/17 08:52:42;;;;;;;;;;;;;;;10.98;100.00;99157.56;5345577;26;20268;-84
2024/04/17 08:55:10;;;;;;;;;;;;;;;10.52;100.00;99157.38;5345077;26;19937;-84
2024/04/17 08:57:38;;;;;;;;;;;;;;;10.30;100.00;99163.72;5344742;26;19993;-84
2024/04/17 09:00:04;;;;;;;;;;;;;;;10.17;100.00;99160.00;5344494;26;19937;-83
2024/04/17 09:02:29;;;;;;;;;;;;;;;10.05;100.00;99160.63;5345419;26;19958;-83
2024/04/17 09:04:55;;;;;;;;;;;;;;;9.98;100.00;99150.34;5345593;26;19982;-82
2024/04/17 09:07:20;;;;;;;;;;;;;;;9.95;100.00;99154.94;5345385;26;20261;-82
2024/04/17 09:09:46;;;;;;;;;;;;;;;9.90;100.00;99151.69;5345540;26;19938;-82
2024/04/17 09:12:11;;;;;;;;;;;;;;;9.86;100.00;99160.69;5344042;26;19937;-91
2024/04/17 09:14:37;;;;;;;;;;;;;;;9.82;100.00;99150.25;5314937;26;19999;-83
2024/04/17 09:17:02;;;;;;;;;;;;;;;9.81;100.00;99145.03;5345392;26;20273;-82
2024/04/17 09:19:28;;;;;;;;;;;;;;;9.78;100.00;99147.84;5345274;26;19930;-83
2024/04/17 09:21:53;;;;;;;;;;;;;;;9.75;100.00;99148.03;5345189;26;19962;-84
2024/04/17 09:24:18;;;;;;;;;;;;;;;9.73;100.00;99141.94;5345253;26;20644;-81
2024/04/17 09:26:44;;;;;;;;;;;;;;;9.69;100.00;99143.88;5343631;26;20310;-83
2024/04/17 09:29:09;;;;;;;;;;;;;;;9.70;100.00;99134.16;5345298;26;19930;-83
2024/04/17 09:31:34;;;;;;;;;;;;;;;9.69;100.00;99135.09;5345178;26;20281;-81
2024/04/17 09:34:00;;;;;;;;;;;;;;;9.70;100.00;99134.16;5345111;26;19942;-83
2024/04/17 09:36:27;;;;;;;;;;;;;;;9.69;100.00;99138.59;5343860;26;19938;-82
2024/04/17 09:38:52;;;;;;;;;;;;;;;9.68;100.00;99136.03;5348207;26;19930;-82
2024/04/17 09:41:17;;;;;;;;;;;;;;;9.66;100.00;99132.59;5346909;26;20377;-82
2024/04/17 09:43:46;;;;;;;;;;;;;;;9.64;100.00;99124.75;5348714;26;19934;-87
2024/04/17 09:46:13;;;;;;;;;;;;;;;9.66;100.00;99122.03;5317579;26;19933;-82
2024/04/17 09:48:41;;;;;;;;;;;;;;;9.63;100.00;99123.88;5347249;26;19930;-82
2024/04/17 09:51:10;;;;;;;;;;;;;;;9.62;100.00;99116.00;5346828;26;20318;-82
2024/04/17 09:53:36;;;;;;;;;;;;;;;9.64;100.00;99112.34;5348114;26;19933;-81
2024/04/17 09:56:03;;;;;;;;;;;;;;;9.61;100.00;99107.22;5346694;26;19934;-83
2024/04/17 09:58:34;;;;;;;;;;;;;;;9.60;100.00;99097.56;5316139;26;19937;-83
2024/04/17 10:01:00;;;;;;;;;;;;;;;9.63;100.00;99097.41;5347134;26;19941;-82
2024/04/17 10:03:26;;;;;;;;;;;;;;;9.65;100.00;99092.03;5347740;26;19930;-86
2024/04/17 10:05:51;;;;;;;;;;;;;;;9.61;100.00;99091.34;5347978;26;19930;-84
2024/04/17 10:08:18;;;;;;;;;;;;;;;9.62;100.00;99089.56;5347993;26;20365;-84
2024/04/17 10:10:43;;;;;;;;;;;;;;;9.61;100.00;99086.06;5373884;26;19930;-86
2024/04/17 10:13:09;;;;;;;;;;;;;;;9.64;100.00;99093.00;5347934;26;19975;-82
2024/04/17 10:15:37;;;;;;;;;;;;;;;9.64;100.00;99099.13;5347494;26;19938;-81
2024/04/17 10:18:02;;;;;;;;;;;;;;;9.62;100.00;99095.72;5347482;26;19941;-87
2024/04/17 10:20:28;;;;;;;;;;;;;;;9.64;100.00;99100.94;5347848;26;19930;-81
2024/04/17 10:23:04;;;;;;;;;;;;;;;9.64;100.00;99093.84;5347588;26;20335;-84
2024/04/17 10:25:30;;;;;;;;;;;;;;;9.64;100.00;99093.84;5315553;26;19930;-85
2024/04/17 10:28:00;;;;;;;;;;;;;;;9.64;100.00;99091.19;5347406;26;19957;-87
2024/04/17 10:30:25;;;;;;;;;;;;;;;9.65;100.00;99094.69;5347429;26;19930;-86
2024/04/17 10:32:51;;;;;;;;;;;;;;;9.64;100.00;99088.56;5347713;26;19930;-85
2024/04/17 10:35:17;;;;;;;;;;;;;;;9.63;100.00;99093.91;5347460;26;20365;-88
2024/04/17 10:37:47;;;;;;;;;;;;;;;9.62;100.00;99085.13;5347492;26;19938;-82
2024/04/17 10:40:13;;;;;;;;;;;;;;;9.64;100.00;99080.63;5344550;26;20247;-86
2024/04/17 10:42:38;;;;;;;;;;;;;;;9.63;100.00;99086.84;5347000;26;20353;-84
2024/04/17 10:45:05;;;;;;;;;;;;;;;9.63;100.00;99086.84;5347430;26;20013;-84
2024/04/17 10:47:32;;;;;;;;;;;;;;;9.63;100.00;99075.41;5345422;26;19930;-84
2024/04/17 10:49:58;;;;;;;;;;;;;;;9.65;100.00;99081.47;5346215;26;19930;-81
2024/04/17 10:52:25;;;;;;;;;;;;;;;9.64;100.00;99093.00;5347060;26;19930;-89
2024/04/17 10:54:52;;;;;;;;;;;;;;;9.67;100.00;99100.78;5347308;26;19930;-84
2024/04/17 10:57:18;;;;;;;;;;;;;;;9.68;100.00;99093.69;5345774;26;19930;-90
2024/04/17 10:59:44;;;;;;;;;;;;;;;9.69;100.00;99106.00;5346966;26;19938;-86
2024/04/17 11:02:09;;;;;;;;;;;;;;;9.67;100.00;99103.44;5347372;26;19941;-83
2024/04/17 11:04:34;;;;;;;;;;;;;;;9.69;100.00;99111.28;5346757;26;19934;-83
2024/04/17 11:07:00;;;;;;;;;;;;;;;9.67;100.00;99108.72;5346782;26;19938;-84
2024/04/17 11:09:25;;;;;;;;;;;;;;;9.67;100.00;99103.44;5347268;26;19934;-83
2024/04/17 11:11:51;;;;;;;;;;;;;;;9.66;100.00;99095.56;5338603;26;20000;-84
2024/04/17 11:14:16;;;;;;;;;;;;;;;9.68;100.00;99096.34;5346730;26;19942;-87
2024/04/17 11:16:42;;;;;;;;;;;;;;;9.69;100.00;99100.72;5314847;26;19966;-90
2024/04/17 11:19:08;;;;;;;;;;;;;;;9.66;100.00;99095.56;5347007;26;19930;-90
2024/04/17 11:21:35;;;;;;;;;;;;;;;9.66;100.00;99103.50;5343618;26;19930;-88
2024/04/17 11:24:02;;;;;;;;;;;;;;;9.68;100.00;99096.34;5346910;26;19930;-86
2024/04/17 11:26:29;;;;;;;;;;;;;;;9.69;100.00;99100.72;5345347;26;19934;-89
2024/04/17 11:28:54;;;;;;;;;;;;;;;9.68;100.00;99104.28;5345614;26;20369;-83
2024/04/17 11:31:20;;;;;;;;;;;;;;;9.70;100.00;99105.03;5346801;26;19934;-87
2024/04/17 11:33:45;;;;;;;;;;;;;;;9.69;100.00;99098.91;5316283;26;19934;-83
2024/04/17 11:36:12;;;;;;;;;;;;;;;9.70;100.00;99099.75;5346891;26;19930;-82
2024/04/17 11:38:37;;;;;;;;;;;;;;;9.72;100.00;99101.41;5346655;26;19937;-84
2024/04/17 11:41:03;;;;;;;;;;;;;;;9.70;100.00;99099.75;5345224;26;20300;-85
2024/04/17 11:43:29;;;;;;;;;;;;;;;9.70;100.00;99107.69;5346459;26;19930;-83
2024/04/17 11:45:54;;;;;;;;;;;;;;;9.70;100.00;99115.63;5346579;26;19980;-86
2024/04/17 11:48:19;;;;;;;;;;;;;;;9.69;100.00;99113.94;5346617;26;20001;-86
2024/04/17 11:50:44;;;;;;;;;;;;;;;9.71;100.00;99110.25;5346839;26;19937;-85
2024/04/17 11:53:10;;;;;;;;;;;;;;;9.71;100.00;99112.91;5345258;26;19937;-83
2024/04/17 11:55:35;;;;;;;;;;;;;;;9.74;100.00;99118.03;5345066;26;19934;-82
2024/04/17 11:58:00;;;;;;;;;;;;;;;9.73;100.00;99112.81;5346175;26;19930;-84
2024/04/17 12:00:26;;;;;;;;;;;;;;;9.71;100.00;99106.78;5345958;26;20435;-83
2024/04/17 12:02:51;;;;;;;;;;;;;;;9.74;100.00;99110.09;5346397;26;19958;-83
2024/04/17 12:05:16;;;;;;;;;;;;;;;9.75;100.00;99121.56;5346455;26;19938;-84
2024/04/17 12:07:42;;;;;;;;;;;;;;;9.77;100.00;99122.34;5346232;26;19981;-85
2024/04/17 12:10:07;;;;;;;;;;;;;;;9.79;100.00;99123.09;5344927;26;20371;-85
2024/04/17 12:12:33;;;;;;;;;;;;;;;9.80;100.00;99124.84;5314194;26;20004;-83
2024/04/17 12:14:58;;;;;;;;;;;;;;;9.83;100.00;99122.03;5346218;26;19930;-83
2024/04/17 12:17:23;;;;;;;;;;;;;;;9.84;100.00;99121.09;5346179;26;20303;-83
2024/04/17 12:19:48;;;;;;;;;;;;;;;9.81;100.00;99114.19;5315576;26;19937;-82
2024/04/17 12:22:14;;;;;;;;;;;;;;;9.84;100.00;99126.38;5346148;26;19937;-83
2024/04/17 12:27:24;;;;;;;;;;;;;;;9.87;100.00;99128.03;5344064;26;20299;-82
2024/04/17 12:29:51;;;;;;;;;;;;;;;9.84;100.00;99121.09;5345851;26;19930;-86
2024/04/17 12:32:17;;;;;;;;;;;;;;;9.85;100.00;99122.81;5315075;26;19930;-84
2024/04/17 12:34:42;;;;;;;;;;;;;;;9.88;100.00;99124.44;5345493;26;19979;-84
2024/04/17 12:37:08;;;;;;;;;;;;;;;9.88;100.00;99130.59;5345971;26;19934;-85
2024/04/17 12:39:34;;;;;;;;;;;;;;;9.87;100.00;99130.66;5315069;26;20265;-86
2024/04/17 12:41:59;;;;;;;;;;;;;;;9.88;100.00;99127.09;5343915;26;19934;-86
2024/04/17 12:44:25;;;;;;;;;;;;;;;9.86;100.00;99124.53;5315594;26;20360;-86
2024/04/17 12:46:50;;;;;;;;;;;;;;;9.87;100.00;99120.09;5345807;26;19930;-86
2024/04/17 12:49:15;;;;;;;;;;;;;;;9.88;100.00;99127.94;5345693;26;20325;-84
2024/04/17 12:51:40;;;;;;;;;;;;;;;9.86;100.00;99128.94;5315171;26;19984;-87
2024/04/17 12:54:06;;;;;;;;;;;;;;;9.89;100.00;99121.72;5345671;26;20003;-83
2024/04/17 12:56:31;;;;;;;;;;;;;;;9.88;100.00;99106.78;5344180;26;19930;-84
2024/04/17 12:58:56;;;;;;;;;;;;;;;9.87;100.00;99106.84;5345333;26;19934;-84
2024/04/17 13:01:21;;;;;;;;;;;;;;;9.88;100.00;99103.28;5345846;26;19930;-84
2024/04/17 13:03:46;;;;;;;;;;;;;;;9.88;100.00;99096.19;5345407;26;19939;-83
2024/04/17 13:06:13;;;;;;;;;;;;;;;9.87;100.00;99097.13;5345707;26;19930;-83
2024/04/17 13:08:39;;;;;;;;;;;;;;;9.89;100.00;99092.63;5345645;26;20358;-83
2024/04/17 13:11:05;;;;;;;;;;;;;;;9.88;100.00;99082.97;5342803;26;19930;-83
2024/04/17 13:13:30;;;;;;;;;;;;;;;9.90;100.00;99075.78;5314878;26;20361;-82
2024/04/17 13:15:57;;;;;;;;;;;;;;;9.89;100.00;99076.75;5345238;26;19942;-86
2024/04/17 13:18:23;;;;;;;;;;;;;;;9.89;100.00;99066.16;5344394;26;19930;-83
2024/04/17 13:20:57;;;;;;;;;;;;;;;9.88;100.00;99060.94;5345166;26;20265;-83
2024/04/17 13:23:23;;;;;;;;;;;;;;;9.89;100.00;99052.06;5344067;26;19942;-83
2024/04/17 13:25:58;;;;;;;;;;;;;;;9.88;100.00;99050.38;5343568;26;19930;-82
2024/04/17 13:28:24;;;;;;;;;;;;;;;9.91;100.00;99047.56;5344049;26;19999;-86
2024/04/17 13:30:55;;;;;;;;;;;;;;;9.90;100.00;99046.69;5345036;26;19930;-83
2024/04/17 13:33:21;;;;;;;;;;;;;;;9.91;100.00;99044.91;5344796;26;20000;-83
2024/04/17 13:35:56;;;;;;;;;;;;;;;9.90;100.00;99033.44;5344870;26;20222;-81
2024/04/17 13:38:21;;;;;;;;;;;;;;;9.91;100.00;99036.97;5344423;26;19934;-84
2024/04/17 13:40:56;;;;;;;;;;;;;;;9.91;100.00;99032.53;5343355;26;19976;-82
2024/04/17 13:43:22;;;;;;;;;;;;;;;9.90;100.00;99028.16;5314125;26;20380;-82
2024/04/17 13:45:47;;;;;;;;;;;;;;;9.94;100.00;99016.50;5314476;26;19930;-83
2024/04/17 13:48:12;;;;;;;;;;;;;;;9.93;100.00;99020.06;5344946;26;19930;-83
2024/04/17 13:50:37;;;;;;;;;;;;;;;9.93;100.00;99014.78;5344687;26;19930;-85
2024/04/17 13:53:03;;;;;;;;;;;;;;;9.96;100.00;99013.75;5343883;26;19930;-83
2024/04/17 13:55:34;;;;;;;;;;;;;;;9.94;100.00;99008.56;5343270;26;19934;-81
2024/04/17 13:57:59;;;;;;;;;;;;;;;9.95;100.00;99007.59;5313268;26;19930;-81
2024/04/17 14:00:25;;;;;;;;;;;;;;;9.94;100.00;99000.63;5344873;26;19930;-81
2024/04/17 14:02:50;;;;;;;;;;;;;;;9.96;100.00;99001.38;5344310;26;19930;-79
2024/04/17 14:05:15;;;;;;;;;;;;;;;9.97;100.00;99003.09;5344576;26;19934;-83
2024/04/17 14:07:40;;;;;;;;;;;;;;;9.97;100.00;99000.44;5344126;26;20403;-82
2024/04/17 14:10:06;;;;;;;;;;;;;;;9.98;100.00;98993.34;5344746;26;19930;-81
2024/04/17 14:12:31;;;;;;;;;;;;;;;9.97;100.00;98991.63;5342899;26;20090;-81
2024/04/17 14:14:56;;;;;;;;;;;;;;;9.97;100.00;98987.22;5344403;26;19937;-81
2024/04/17 14:17:21;;;;;;;;;;;;;;;9.98;100.00;98991.56;5313837;26;19930;-83
2024/04/17 14:19:47;;;;;;;;;;;;;;;10.01;100.00;98979.97;5344276;26;19934;-83
2024/04/17 14:22:12;;;;;;;;;;;;;;;9.98;100.00;98983.63;5344350;26;19930;-82
2024/04/17 14:24:37;;;;;;;;;;;;;;;10.01;100.00;98982.63;5347718;26;20577;-81
2024/04/17 14:27:02;;;;;;;;;;;;;;;10.02;100.00;98981.69;5346063;26;19999;-80
2024/04/17 14:29:28;;;;;;;;;;;;;;;10.06;100.00;98977.91;5347712;26;20323;-80
2024/04/17 14:31:53;;;;;;;;;;;;;;;10.02;100.00;98986.97;5347539;26;20260;-82
2024/04/17 14:34:18;;;;;;;;;;;;;;;10.03;100.00;98993.97;5347679;26;19937;-80
2024/04/17 14:36:45;;;;;;;;;;;;;;;10.05;100.00;98996.53;5346952;26;19930;-81
2024/04/17 14:39:11;;;;;;;;;;;;;;;10.05;100.00;98993.88;5347460;26;19981;-84
2024/04/17 14:41:36;;;;;;;;;;;;;;;10.20;100.00;98998.38;5346353;26;20427;-81
2024/04/17 14:44:01;;;;;;;;;;;;;;;10.11;100.00;98993.56;5347405;26;20427;-84
2024/04/17 14:46:26;;;;;;;;;;;;;;;10.10;100.00;98991.84;5347636;26;19937;-81
2024/04/17 14:48:52;;;;;;;;;;;;;;;10.08;100.00;99002.50;5347274;26;19958;-82
2024/04/17 14:51:18;;;;;;;;;;;;;;;10.06;100.00;99000.91;5347249;26;19938;-82
2024/04/17 14:53:43;;;;;;;;;;;;;;;10.08;100.00;99006.97;5347288;26;19930;-79
2024/04/17 14:56:09;;;;;;;;;;;;;;;10.08;100.00;99004.31;5344343;26;20050;-83
2024/04/17 14:58:35;;;;;;;;;;;;;;;10.08;100.00;99012.25;5347079;26;20376;-83
2024/04/17 15:01:05;;;;;;;;;;;;;;;10.05;100.00;99008.00;5344460;26;19934;-91
2024/04/17 15:03:32;;;;;;;;;;;;;;;10.07;100.00;99007.88;5377561;26;19930;-86
2024/04/17 15:06:04;;;;;;;;;;;;;;;10.08;100.00;99015.75;5318427;26;20369;-84
2024/04/17 15:08:29;;;;;;;;;;;;;;;10.10;100.00;99032.41;5345756;26;19937;-85
2024/04/17 15:11:08;;;;;;;;;;;;;;;10.12;100.00;99053.50;5345509;26;19930;-81
2024/04/17 15:13:42;;;;;;;;;;;;;;;10.15;100.00;99070.09;5346472;26;19941;-82
2024/04/17 15:16:09;;;;;;;;;;;;;;;10.12;100.00;99086.13;5346988;26;19958;-81
2024/04/17 15:18:34;;;;;;;;;;;;;;;10.13;100.00;99084.31;5346498;26;19937;-83
2024/04/17 15:20:59;;;;;;;;;;;;;;;10.10;100.00;99089.78;5316240;26;19950;-80
2024/04/17 15:23:25;;;;;;;;;;;;;;;10.09;100.00;99098.69;5346590;26;19930;-82
2024/04/17 15:26:09;;;;;;;;;;;;;;;10.13;100.00;99105.50;5345119;26;19937;-84
2024/04/17 15:28:35;;;;;;;;;;;;;;;10.12;100.00;99107.31;5346531;26;19934;-82
2024/04/17 15:31:02;;;;;;;;;;;;;;;10.12;100.00;99115.25;5345127;26;19931;-86
2024/04/17 15:33:27;;;;;;;;;;;;;;;10.11;100.00;99124.09;5316232;26;19958;-80
2024/04/17 15:35:53;;;;;;;;;;;;;;;9.51;100.00;99135.06;5345751;26;20285;-83
2024/04/17 15:38:18;;;;;;;;;;;;;;;8.42;100.00;99146.22;5346651;26;19930;-83
2024/04/17 15:40:52;;;;;;;;;;;;;;;8.08;100.00;99144.22;5345015;26;19962;-81
2024/04/17 15:43:17;;;;;;;;;;;;;;;7.82;100.00;99143.53;5346176;26;19938;-87
2024/04/17 15:45:43;;;;;;;;;;;;;;;7.73;100.00;99144.75;5346554;26;20320;-83
2024/04/17 15:48:08;;;;;;;;;;;;;;;7.62;100.00;99149.63;5346405;26;19930;-85
2024/04/17 15:50:33;;;;;;;;;;;;;;;7.49;100.00;99143.97;5315914;26;19941;-86
2024/04/17 15:52:58;;;;;;;;;;;;;;;7.42;100.00;99132.84;5345986;26;19936;-83
2024/04/17 15:55:23;;;;;;;;;;;;;;;7.35;100.00;99127.88;5344685;26;20357;-82
2024/04/17 15:57:49;;;;;;;;;;;;;;;7.27;100.00;99121.16;5346024;26;20439;-82
2024/04/17 16:00:15;;;;;;;;;;;;;;;7.16;100.00;99130.38;5345880;26;21257;-83
2024/04/17 16:02:40;;;;;;;;;;;;;;;7.10;100.00;99120.94;5345848;26;20379;-82
2024/04/17 16:05:05;;;;;;;;;;;;;;;7.04;100.00;99113.28;5346053;26;19930;-82
2024/04/17 16:07:31;;;;;;;;;;;;;;;6.98;100.00;99092.44;5345935;26;19930;-85
2024/04/17 16:09:56;;;;;;;;;;;;;;;6.92;100.00;99067.19;5346056;26;19941;-82
2024/04/17 16:12:21;;;;;;;;;;;;;;;6.89;100.00;99075.22;5344412;26;19937;-84
2024/04/17 16:14:47;;;;;;;;;;;;;;;6.87;100.00;99082.31;5345489;26;20388;-82
2024/04/17 16:17:12;;;;;;;;;;;;;;;6.84;100.00;99074.53;5345776;26;19930;-84
2024/04/17 16:19:38;;;;;;;;;;;;;;;6.76;100.00;99080.09;5346093;26;19938;-81
2024/04/17 16:22:03;;;;;;;;;;;;;;;6.70;100.00;99081.22;5345107;26;19936;-80
2024/04/17 16:24:28;;;;;;;;;;;;;;;6.71;100.00;99082.06;5315319;26;19934;-81
2024/04/17 16:26:53;;;;;;;;;;;;;;;6.64;100.00;99089.34;5344151;26;19937;-83
2024/04/17 16:29:19;;;;;;;;;;;;;;;6.58;100.00;99088.72;5315403;26;19930;-87
2024/04/17 16:31:46;;;;;;;;;;;;;;;6.56;100.00;99086.13;5315311;26;19937;-80
2024/04/17 16:34:11;;;;;;;;;;;;;;;6.61;100.00;99081.56;5315188;26;20495;-81
2024/04/17 16:36:36;;;;;;;;;;;;;;;6.52;100.00;99081.88;5315491;26;19930;-79
2024/04/17 16:39:02;;;;;;;;;;;;;;;6.57;100.00;99079.09;5345434;26;19930;-82
2024/04/17 16:41:27;;;;;;;;;;;;;;;6.56;100.00;99075.59;5344334;26;19930;-80
2024/04/17 16:43:54;;;;;;;;;;;;;;;6.49;100.00;99069.72;5345493;26;19930;-81
2024/04/17 16:46:19;;;;;;;;;;;;;;;6.45;100.00;99062.00;5313992;26;20278;-80
2024/04/17 16:48:44;;;;;;;;;;;;;;;6.44;100.00;99069.00;5315218;26;20006;-82
2024/04/17 16:51:10;;;;;;;;;;;;;;;6.44;100.00;99070.78;5314986;26;19999;-80
2024/04/17 16:53:36;;;;;;;;;;;;;;;6.43;100.00;99066.44;5345528;26;20025;-83
2024/04/17 16:56:03;;;;;;;;;;;;;;;6.43;100.00;99066.44;5313480;26;19938;-85
2024/04/17 16:58:28;;;;;;;;;;;;;;;6.29;100.00;99062.56;5343902;26;19937;-84
2024/04/17 17:00:55;;;;;;;;;;;;;;;6.22;100.00;99066.31;5345253;26;19967;-83
2024/04/17 17:03:21;;;;;;;;;;;;;;;6.24;100.00;99064.50;5345626;26;19945;-81
2024/04/17 17:05:46;;;;;;;;;;;;;;;6.16;100.00;99061.31;5345551;26;19942;-82
2024/04/17 17:08:11;;;;;;;;;;;;;;;6.07;100.00;99061.63;5345307;26;19937;-80
2024/04/17 17:10:37;;;;;;;;;;;;;;;5.98;100.00;99068.94;5343882;26;19936;-84
2024/04/17 17:13:02;;;;;;;;;;;;;;;5.97;100.00;99064.56;5345196;26;19930;-81
2024/04/17 17:15:28;;;;;;;;;;;;;;;5.89;100.00;99063.97;5345003;26;20374;-81
2024/04/17 17:17:53;;;;;;;;;;;;;;;5.85;100.00;99066.75;5314727;26;19941;-84
2024/04/17 17:20:18;;;;;;;;;;;;;;;5.88;100.00;99067.50;5315060;26;19930;-90
2024/04/17 17:22:44;;;;;;;;;;;;;;;5.86;100.00;99066.69;5345449;26;20357;-85
2024/04/17 17:25:09;;;;;;;;;;;;;;;5.93;100.00;99065.56;5345234;26;19934;-83
2024/04/17 17:27:34;;;;;;;;;;;;;;;6.01;100.00;99067.94;5343625;26;19999;-83
2024/04/17 17:30:00;;;;;;;;;;;;;;;6.08;100.00;99061.56;5285539;26;20297;-82
2024/04/17 17:32:26;;;;;;;;;;;;;;;6.24;100.00;99058.38;5344998;26;19937;-83
2024/04/17 17:34:56;;;;;;;;;;;;;;;6.24;100.00;99058.38;5345128;26;20262;-83
2024/04/17 17:37:28;;;;;;;;;;;;;;;6.32;100.00;99061.59;5343409;26;19941;-90
2024/04/17 17:39:53;;;;;;;;;;;;;;;6.42;100.00;99056.84;5344070;26;19930;-86
2024/04/17 17:42:19;;;;;;;;;;;;;;;6.47;100.00;99065.41;5342569;26;19937;-83
2024/04/17 17:44:47;;;;;;;;;;;;;;;6.56;100.00;99062.44;5314305;26;19930;-82
2024/04/17 17:47:12;;;;;;;;;;;;;;;6.64;100.00;99065.66;5370949;26;19930;-85
2024/04/17 17:49:41;;;;;;;;;;;;;;;6.70;100.00;99073.31;5344836;26;20283;-82
2024/04/17 17:52:06;;;;;;;;;;;;;;;6.66;100.00;99070.84;5344594;26;19983;-84
2024/04/17 17:54:32;;;;;;;;;;;;;;;6.71;100.00;99064.47;5344916;26;19934;-81
2024/04/17 17:56:57;;;;;;;;;;;;;;;6.77;100.00;99066.03;5342589;26;19930;-80
2024/04/17 17:59:22;;;;;;;;;;;;;;;6.73;100.00;99060.03;5347672;26;20000;-80
2024/04/17 18:01:47;;;;;;;;;;;;;;;6.73;100.00;99062.66;5347660;26;19942;-83
2024/04/17 18:04:13;;;;;;;;;;;;;;;6.76;100.00;99061.66;5346326;26;20001;-84
2024/04/17 18:06:38;;;;;;;;;;;;;;;6.79;100.00;99072.09;5347766;26;20003;-81
2024/04/17 18:09:08;;;;;;;;;;;;;;;6.82;100.00;99079.00;5347748;26;19945;-81
2024/04/17 18:11:40;;;;;;;;;;;;;;;6.82;100.00;99082.50;5344699;26;20380;-90
2024/04/17 18:14:05;;;;;;;;;;;;;;;6.75;100.00;99077.53;5317059;26;19930;-81
2024/04/17 18:16:32;;;;;;;;;;;;;;;6.81;100.00;99090.47;5316810;26;19938;-82
2024/04/17 18:18:58;;;;;;;;;;;;;;;6.86;100.00;99094.63;5316778;26;19942;-81
2024/04/17 18:21:23;;;;;;;;;;;;;;;6.87;100.00;99090.22;5302436;26;20368;-82
2024/04/17 18:23:48;;;;;;;;;;;;;;;6.84;100.00;99093.81;5347862;26;20000;-82
2024/04/17 18:26:16;;;;;;;;;;;;;;;6.89;100.00;99091.91;5345759;26;20269;-80
2024/04/17 18:28:41;;;;;;;;;;;;;;;6.94;100.00;99086.44;5347151;26;20000;-81
2024/04/17 18:31:07;;;;;;;;;;;;;;;6.98;100.00;99084.53;5347123;26;19942;-82
2024/04/17 18:33:36;;;;;;;;;;;;;;;6.93;100.00;99089.16;5347275;26;20269;-86
2024/04/17 18:36:02;;;;;;;;;;;;;;;6.91;100.00;99103.22;5316741;26;20323;-81
2024/04/17 18:38:27;;;;;;;;;;;;;;;6.88;100.00;99091.94;5347105;26;19938;-82
2024/04/17 18:40:55;;;;;;;;;;;;;;;6.90;100.00;99101.50;5345329;26;19937;-81
2024/04/17 18:43:20;;;;;;;;;;;;;;;6.87;100.00;99092.84;5347136;26;19930;-83
2024/04/17 18:45:45;;;;;;;;;;;;;;;6.90;100.00;99098.84;5347389;26;20397;-83
2024/04/17 18:48:10;;;;;;;;;;;;;;;6.98;100.00;99097.72;5347085;26;20355;-81
2024/04/17 18:50:36;;;;;;;;;;;;;;;6.92;100.00;99101.44;5347288;26;20365;-82
2024/04/17 18:53:01;;;;;;;;;;;;;;;6.98;100.00;99100.34;5316413;26;20456;-87
2024/04/17 18:55:27;;;;;;;;;;;;;;;6.91;100.00;99097.09;5314719;26;20394;-85
2024/04/17 18:57:56;;;;;;;;;;;;;;;6.89;100.00;99104.19;5346756;26;19937;-83
2024/04/17 19:00:21;;;;;;;;;;;;;;;6.93;100.00;99102.31;5347110;26;19930;-82
2024/04/17 19:02:52;;;;;;;;;;;;;;;6.92;100.00;99106.69;5346616;26;19930;-85
2024/04/17 19:05:18;;;;;;;;;;;;;;;6.92;100.00;99109.34;5345369;26;19937;-86
2024/04/17 19:07:43;;;;;;;;;;;;;;;7.02;100.00;99108.06;5346701;26;19937;-83
2024/04/17 19:10:08;;;;;;;;;;;;;;;6.96;100.00;99104.81;5314679;26;19986;-82